Aviation Digital Data Service (ADDS)

Output produced by TAFs form (0549 UTC 25 February 2018)
found at http://aviationweather.gov/adds/tafs/
 
METAR text: ZBAA 250530Z VRB02MPS CAVOK 04/M11 Q1023 NOSIG
Conditions at: ZBAA (BEIJING/PEKING , CN) observed 0530 UTC 25 February 2018
Temperature: 4.0°C (39°F)
Dewpoint: -11.0°C (12°F) [RH = 32%]
Pressure (altimeter): 30.21 inches Hg (1023.0 mb)
Winds: variable direction winds at 5 MPH (4 knots; 2.1 m/s)
Visibility: 6 or more miles (10+ km)
Ceiling: ceiling and visibility are OK
Clouds: unknown
Weather: no significant weather observed at this time

Forecast for: ZBAA (BEIJING/PEKING , CN)
Text: TAF ZBAA 250320Z 2506/2606 16004MPS CAVOK TX06/2507Z TNM06/21Z
Forecast period: 0600 UTC 25 February 2018 to 0600 UTC 26 February 2018
Forecast type: FROM: standard forecast or significant change
Winds: from the SSE (160 degrees) at 9 MPH (8 knots; 4.2 m/s)
Visibility: 6 or more miles (10+ km)
Clouds: not forecast
Temperature: minimum -6.0°C (21°F) expected at 2100 UTC
Weather: no significant weather forecast for this period